Terminal Aerodrome Forecast
Issued by NWS Northern Indiana

Home | Current Version | Previous Version | Text Only | Print | Product List | Glossary Off
Versions: 1 2 3 4 5 6 7 8 9 10 11 12 13 14 15 16 17 18 19

000
FTUS43 KIWX 201721
TAFFWA
TAF
KFWA 201721Z 2018/2118 10012G20KT 2SM BR VCTS OVC015CB
     FM202100 12012KT P6SM VCSH OVC035
     FM210200 14011KT 4SM SHRA VCTS OVC050CB
     FM210500 17010KT 6SM -SHRA OVC060
     FM211400 22013KT P6SM OVC015
     FM211700 24010KT P6SM BKN035=

USA.gov is the U.S. government's official web portal to all federal, state and local government web resources and services.